createdAt,value
2023-04-15T00:00:59.849Z,96742.73
2023-04-15T00:03:29.960Z,96745.29
2023-04-15T00:05:58.663Z,96753.41
2023-04-15T00:08:26.655Z,96755.77
2023-04-15T00:10:54.796Z,96758.20
2023-04-15T00:13:22.842Z,96759.89
2023-04-15T00:15:50.802Z,96748.84
2023-04-15T00:18:18.764Z,96741.27
2023-04-15T00:20:47.227Z,96748.97
2023-04-15T00:23:15.111Z,96761.99
2023-04-15T00:25:43.303Z,96767.20
2023-04-15T00:28:11.752Z,96755.64
2023-04-15T00:30:39.891Z,96752.70
2023-04-15T00:33:09.309Z,96745.58
2023-04-15T00:35:37.656Z,96740.23
2023-04-15T00:38:08.247Z,96742.08
2023-04-15T00:40:36.418Z,96753.08
2023-04-15T00:43:04.433Z,96756.80
2023-04-15T00:45:33.575Z,96757.26
2023-04-15T00:48:01.917Z,96755.59
2023-04-15T00:50:30.098Z,96752.60
2023-04-15T00:52:58.223Z,96753.72
2023-04-15T00:55:26.845Z,96747.29
2023-04-15T00:57:54.954Z,96747.64
2023-04-15T01:00:23.548Z,96752.69
2023-04-15T01:02:52.358Z,96758.32
2023-04-15T01:05:20.476Z,96755.75
2023-04-15T01:07:51.963Z,96755.02
2023-04-15T01:10:20.027Z,96748.95
2023-04-15T01:12:48.168Z,96744.89
2023-04-15T01:15:16.264Z,96747.12
2023-04-15T01:17:44.194Z,96744.63
2023-04-15T01:20:13.109Z,96748.47
2023-04-15T01:22:41.434Z,96742.98
2023-04-15T01:25:17.851Z,96742.79
2023-04-15T01:27:46.542Z,96740.60
2023-04-15T01:30:14.657Z,96733.69
2023-04-15T01:32:43.081Z,96736.76
2023-04-15T01:35:11.015Z,96733.73
2023-04-15T01:37:39.070Z,96736.07
2023-04-15T01:40:08.078Z,96737.04
2023-04-15T01:42:37.521Z,96746.17
2023-04-15T01:45:06.415Z,96742.04
2023-04-15T01:47:34.487Z,96740.84
2023-04-15T01:50:03.507Z,96729.42
2023-04-15T01:52:32.213Z,96738.93
2023-04-15T01:55:00.203Z,96745.36
2023-04-15T01:57:28.184Z,96742.66
2023-04-15T01:59:56.743Z,96745.80
2023-04-15T02:02:25.035Z,96745.16
2023-04-15T02:04:53.624Z,96748.27
2023-04-15T02:07:21.997Z,96748.30
2023-04-15T02:09:50.080Z,96748.31
2023-04-15T02:12:17.973Z,96746.88
2023-04-15T02:14:46.572Z,96750.67
2023-04-15T02:17:14.576Z,96756.79
2023-04-15T02:19:44.602Z,96755.69
2023-04-15T02:22:18.405Z,96752.89
2023-04-15T02:24:47.561Z,96747.86
2023-04-15T02:27:17.756Z,96748.96
2023-04-15T02:29:46.361Z,96752.84
2023-04-15T02:32:14.707Z,96757.91
2023-04-15T02:34:43.228Z,96753.13
2023-04-15T02:37:12.559Z,96752.28
2023-04-15T02:39:40.900Z,96748.59
2023-04-15T02:42:08.810Z,96747.66
2023-04-15T02:44:38.097Z,96746.56
2023-04-15T02:47:07.476Z,96746.80
2023-04-15T02:49:35.926Z,96745.31
2023-04-15T02:52:03.872Z,96745.39
2023-04-15T02:54:34.150Z,96740.58
2023-04-15T02:57:02.688Z,96745.52
2023-04-15T02:59:30.867Z,96738.29
2023-04-15T03:02:01.477Z,96734.48
2023-04-15T03:04:30.910Z,96734.34
2023-04-15T03:07:02.016Z,96732.48
2023-04-15T03:09:30.294Z,96734.57
2023-04-15T03:11:59.388Z,96739.70
2023-04-15T03:14:27.365Z,96742.08
2023-04-15T03:16:56.149Z,96739.66
2023-04-15T03:19:25.240Z,96741.20
2023-04-15T03:21:53.213Z,96742.44
2023-04-15T03:24:21.534Z,96747.31
2023-04-15T03:26:49.539Z,96749.77
2023-04-15T03:29:18.131Z,96750.52
2023-04-15T03:31:46.403Z,96751.41
2023-04-15T03:34:14.614Z,96745.09
2023-04-15T03:36:42.656Z,96752.52
2023-04-15T03:39:11.041Z,96761.48
2023-04-15T03:41:39.034Z,96757.48
2023-04-15T03:44:07.102Z,96761.73
2023-04-15T03:46:35.063Z,96762.79
2023-04-15T03:49:03.533Z,96764.33
2023-04-15T03:51:31.693Z,96765.85
2023-04-15T03:54:00.043Z,96767.85
2023-04-15T03:56:28.020Z,96772.71
2023-04-15T03:58:56.199Z,96776.46
2023-04-15T04:01:24.130Z,96785.19
2023-04-15T04:03:52.388Z,96785.30
2023-04-15T04:06:20.618Z,96789.23
2023-04-15T04:08:48.858Z,96791.15
2023-04-15T04:11:17.223Z,96791.95
2023-04-15T04:13:45.450Z,96790.84
2023-04-15T04:16:13.540Z,96795.56
2023-04-15T04:18:41.554Z,96795.53
2023-04-15T04:21:09.614Z,96798.52
2023-04-15T04:23:37.711Z,96802.30
2023-04-15T04:26:06.219Z,96805.60
2023-04-15T04:28:35.345Z,96806.17
2023-04-15T04:31:03.971Z,96807.58
2023-04-15T04:33:32.298Z,96805.17
2023-04-15T04:36:00.234Z,96807.45
2023-04-15T04:38:28.165Z,96811.69
2023-04-15T04:40:56.450Z,96815.48
2023-04-15T04:43:24.450Z,96818.86
2023-04-15T04:45:52.433Z,96813.44
2023-04-15T04:48:20.653Z,96819.66
2023-04-15T04:50:48.859Z,96826.42
2023-04-15T04:53:17.454Z,96827.58
2023-04-15T04:55:45.709Z,96827.04
2023-04-15T04:58:13.797Z,96825.66
2023-04-15T05:00:42.199Z,96826.22
2023-04-15T05:03:10.559Z,96824.43
2023-04-15T05:05:41.238Z,96825.75
2023-04-15T05:08:09.143Z,96822.36
2023-04-15T05:10:37.544Z,96827.65
2023-04-15T05:13:05.600Z,96824.91
2023-04-15T05:15:35.121Z,96818.07
2023-04-15T05:18:03.235Z,96815.27
2023-04-15T05:20:31.293Z,96815.66
2023-04-15T05:22:59.339Z,96817.25
2023-04-15T05:25:27.748Z,96822.80
2023-04-15T05:27:58.869Z,96828.11
2023-04-15T05:30:26.815Z,96831.78
2023-04-15T05:32:55.430Z,96836.56
2023-04-15T05:35:23.941Z,96837.15
2023-04-15T05:37:51.832Z,96838.46
2023-04-15T05:40:20.236Z,96837.36
2023-04-15T05:42:48.326Z,96838.67
2023-04-15T05:45:16.716Z,96835.40
2023-04-15T05:47:44.936Z,96828.84
2023-04-15T05:50:13.167Z,96831.47
2023-04-15T05:52:41.161Z,96831.05
2023-04-15T05:55:09.604Z,96833.95
2023-04-15T05:57:37.891Z,96837.92
2023-04-15T06:00:06.664Z,96849.38
2023-04-15T06:02:40.594Z,96856.45
2023-04-15T06:05:11.295Z,96859.44
2023-04-15T06:07:39.344Z,96857.58
2023-04-15T06:10:08.008Z,96860.83
2023-04-15T06:12:36.268Z,96854.61
2023-04-15T06:15:04.952Z,96857.11
2023-04-15T06:17:32.928Z,96851.52
2023-04-15T06:20:01.251Z,96846.10
2023-04-15T06:22:31.547Z,96844.02
2023-04-15T06:24:59.580Z,96839.11
2023-04-15T06:27:27.492Z,96844.22
2023-04-15T06:29:55.892Z,96850.81
2023-04-15T06:32:24.475Z,96859.96
2023-04-15T06:34:52.514Z,96865.55
2023-04-15T06:37:20.784Z,96862.17
2023-04-15T06:39:48.798Z,96860.32
2023-04-15T06:42:16.903Z,96857.82
2023-04-15T06:44:45.194Z,96861.63
2023-04-15T06:47:14.913Z,96863.88
2023-04-15T06:49:43.298Z,96864.15
2023-04-15T06:52:11.481Z,96873.55
2023-04-15T06:54:39.598Z,96876.42
2023-04-15T06:57:07.868Z,96875.56
2023-04-15T06:59:36.175Z,96880.73
2023-04-15T07:02:04.982Z,96886.73
2023-04-15T07:04:34.735Z,96887.64
2023-04-15T07:07:02.882Z,96888.96
2023-04-15T07:09:31.343Z,96891.94
2023-04-15T07:11:59.292Z,96890.36
2023-04-15T07:14:27.888Z,96890.23
2023-04-15T07:16:56.544Z,96886.25
2023-04-15T07:19:27.208Z,96886.30
2023-04-15T07:21:55.405Z,96882.70
2023-04-15T07:24:26.756Z,96883.74
2023-04-15T07:26:59.451Z,96881.91
2023-04-15T07:29:28.786Z,96879.80
2023-04-15T07:31:57.340Z,96881.10
2023-04-15T07:34:25.875Z,96879.45
2023-04-15T07:36:53.898Z,96885.91
2023-04-15T07:39:22.780Z,96886.51
2023-04-15T07:41:50.729Z,96883.40
2023-04-15T07:44:19.490Z,96879.27
2023-04-15T07:46:47.999Z,96876.19
2023-04-15T07:49:15.940Z,96874.64
2023-04-15T07:51:44.544Z,96874.21
2023-04-15T07:54:12.725Z,96871.78
2023-04-15T07:56:41.421Z,96868.55
2023-04-15T07:59:10.681Z,96868.96
2023-04-15T08:01:39.020Z,96870.13
2023-04-15T08:04:07.438Z,96869.95
2023-04-15T08:06:35.495Z,96870.64
2023-04-15T08:09:05.252Z,96874.02
2023-04-15T08:11:33.600Z,96869.60
2023-04-15T08:14:02.142Z,96867.81
2023-04-15T08:16:30.167Z,96863.88
2023-04-15T08:18:58.435Z,96863.02
2023-04-15T08:21:27.777Z,96862.10
2023-04-15T08:23:56.625Z,96859.91
2023-04-15T08:26:24.754Z,96860.27
2023-04-15T08:28:52.791Z,96862.73
2023-04-15T08:31:21.129Z,96865.30
2023-04-15T08:33:49.287Z,96862.19
2023-04-15T08:36:17.786Z,96861.39
2023-04-15T08:38:45.875Z,96861.45
2023-04-15T08:41:49.021Z,96856.72
2023-04-15T08:44:18.600Z,96856.40
2023-04-15T08:46:47.617Z,96860.83
2023-04-15T08:49:18.156Z,96860.81
2023-04-15T08:51:46.466Z,96860.26
2023-04-15T08:54:15.130Z,96862.35
2023-04-15T08:56:43.294Z,96857.37
2023-04-15T08:59:12.547Z,96857.41
2023-04-15T09:01:41.647Z,96858.38
2023-04-15T09:04:12.638Z,96857.08
2023-04-15T09:06:41.508Z,96853.85
2023-04-15T09:09:09.756Z,96851.64
2023-04-15T09:11:37.863Z,96845.51
2023-04-15T09:14:06.042Z,96845.14
2023-04-15T09:17:02.042Z,96850.80
2023-04-15T09:19:30.501Z,96851.21
2023-04-15T09:22:17.245Z,96846.25
2023-04-15T09:24:51.597Z,96850.70
2023-04-15T09:27:21.068Z,96847.14
2023-04-15T09:29:51.683Z,96839.23
2023-04-15T09:32:21.294Z,96833.82
2023-04-15T09:34:49.503Z,96831.21
2023-04-15T09:37:31.761Z,96826.68
2023-04-15T09:40:00.222Z,96821.93
2023-04-15T09:42:28.762Z,96819.45
2023-04-15T09:45:09.396Z,96819.13
2023-04-15T09:47:37.907Z,96823.34
2023-04-15T09:50:06.277Z,96821.51
2023-04-15T09:52:34.301Z,96819.30
2023-04-15T09:55:02.732Z,96818.71
2023-04-15T09:57:36.510Z,96815.69
2023-04-15T10:00:06.740Z,96816.86
2023-04-15T10:02:35.862Z,96817.80
2023-04-15T10:05:04.372Z,96817.10
2023-04-15T10:07:32.761Z,96814.83
2023-04-15T10:10:05.441Z,96820.05
2023-04-15T10:12:33.647Z,96818.77
2023-04-15T10:15:05.352Z,96818.77
2023-04-15T10:17:35.549Z,96815.67
2023-04-15T10:20:05.562Z,96812.13
2023-04-15T10:22:33.653Z,96815.13
2023-04-15T10:25:04.425Z,96809.66
2023-04-15T10:27:33.882Z,96802.38
2023-04-15T10:30:03.958Z,96801.23
2023-04-15T10:32:34.292Z,96798.90
2023-04-15T10:35:04.291Z,96792.80
2023-04-15T10:37:37.591Z,96790.04
2023-04-15T10:40:31.805Z,96787.27
2023-04-15T10:43:02.054Z,96787.38
2023-04-15T10:45:37.639Z,96786.52
2023-04-15T10:48:08.838Z,96792.61
2023-04-15T10:50:39.588Z,96791.60
2023-04-15T10:53:10.807Z,96788.96
2023-04-15T10:55:39.071Z,96783.48
2023-04-15T10:58:08.799Z,96785.03
2023-04-15T11:00:37.723Z,96785.48
2023-04-15T11:03:09.923Z,96786.25
2023-04-15T11:05:41.642Z,96782.59
2023-04-15T11:08:10.956Z,96786.70
2023-04-15T11:10:38.966Z,96786.86
2023-04-15T11:13:10.233Z,96795.50
2023-04-15T11:15:46.345Z,96794.61
2023-04-15T11:18:26.494Z,96795.52
2023-04-15T11:21:00.201Z,96793.08
2023-04-15T11:23:47.806Z,96786.80
2023-04-15T11:26:16.314Z,96783.30
2023-04-15T11:28:46.131Z,96781.80
2023-04-15T11:31:16.499Z,96786.88
2023-04-15T11:33:55.571Z,96792.22
2023-04-15T11:36:29.045Z,96794.98
2023-04-15T11:38:58.922Z,96791.78
2023-04-15T11:41:27.918Z,96788.46
2023-04-15T11:43:56.158Z,96788.98
2023-04-15T11:46:31.899Z,96788.41
2023-04-15T11:49:00.397Z,96786.80
2023-04-15T11:51:33.433Z,96788.66
2023-04-15T11:54:02.997Z,96789.70
2023-04-15T11:56:32.115Z,96784.72
2023-04-15T11:59:00.180Z,96783.92
2023-04-15T12:01:47.697Z,96787.85
2023-04-15T12:04:22.581Z,96790.27
2023-04-15T12:06:53.062Z,96783.52
2023-04-15T12:09:21.759Z,96776.95
2023-04-15T12:11:57.419Z,96775.80
2023-04-15T12:14:25.442Z,96780.36
2023-04-15T12:17:00.411Z,96787.38
2023-04-15T12:19:32.726Z,96787.65
2023-04-15T12:22:10.322Z,96783.86
2023-04-15T12:24:39.748Z,96783.85
2023-04-15T12:27:17.656Z,96780.91
2023-04-15T12:29:45.729Z,96775.67
2023-04-15T12:32:21.117Z,96776.92
2023-04-15T12:34:54.560Z,96769.50
2023-04-15T12:37:22.656Z,96772.63
2023-04-15T12:39:54.091Z,96771.38
2023-04-15T12:42:22.779Z,96772.52
2023-04-15T12:44:50.759Z,96775.59
2023-04-15T12:47:18.764Z,96778.35
2023-04-15T12:49:49.644Z,96784.73
2023-04-15T12:52:17.705Z,96791.46
2023-04-15T12:54:45.798Z,96785.40
2023-04-15T12:57:13.890Z,96783.95
2023-04-15T12:59:42.042Z,96782.48
2023-04-15T13:02:10.261Z,96780.46
2023-04-15T13:04:38.437Z,96774.68
2023-04-15T13:07:06.686Z,96773.67
2023-04-15T13:09:34.813Z,96775.31
2023-04-15T13:12:04.791Z,96779.38
2023-04-15T13:14:32.906Z,96784.63
2023-04-15T13:17:00.931Z,96784.71
2023-04-15T13:19:29.552Z,96787.98
2023-04-15T13:21:57.654Z,96790.33
2023-04-15T13:24:26.119Z,96796.89
2023-04-15T13:26:55.506Z,96802.64
2023-04-15T13:29:24.349Z,96812.55
2023-04-15T13:31:52.494Z,96813.52
2023-04-15T13:34:21.008Z,96820.23
2023-04-15T13:36:49.025Z,96828.67
2023-04-15T13:39:17.076Z,96831.52
2023-04-15T13:41:45.049Z,96837.09
2023-04-15T13:44:13.615Z,96841.91
2023-04-15T13:46:44.444Z,96848.73
2023-04-15T13:49:12.800Z,96853.88
2023-04-15T13:51:41.044Z,96854.13
2023-04-15T13:54:09.243Z,96856.11
2023-04-15T13:56:37.977Z,96859.22
2023-04-15T13:59:07.358Z,96864.03
2023-04-15T14:01:36.225Z,96864.06
2023-04-15T14:04:04.505Z,96857.16
2023-04-15T14:06:32.948Z,96870.40
2023-04-15T14:09:01.448Z,96870.82
2023-04-15T14:11:30.118Z,96872.66
2023-04-15T14:13:58.182Z,96876.31
2023-04-15T14:16:26.331Z,96884.16
2023-04-15T14:18:54.260Z,96887.61
2023-04-15T14:21:22.563Z,96893.33
2023-04-15T14:23:50.583Z,96895.38
2023-04-15T14:26:19.432Z,96892.82
2023-04-15T14:28:48.451Z,96894.23
2023-04-15T14:31:16.543Z,96897.08
2023-04-15T14:33:45.148Z,96898.52
2023-04-15T14:36:13.435Z,96902.23
2023-04-15T14:38:41.905Z,96906.23
2023-04-15T14:41:10.113Z,96910.48
2023-04-15T14:43:39.602Z,96912.12
2023-04-15T14:46:08.633Z,96914.66
2023-04-15T14:48:37.237Z,96917.89
2023-04-15T14:51:06.799Z,96914.69
2023-04-15T14:53:35.841Z,96916.27
2023-04-15T14:56:04.049Z,96916.39
2023-04-15T14:58:33.295Z,96918.95
2023-04-15T15:01:03.324Z,96927.06
2023-04-15T15:03:32.123Z,96929.59
2023-04-15T15:06:00.220Z,96936.07
2023-04-15T15:08:29.943Z,96943.15
2023-04-15T15:10:57.983Z,96945.68
2023-04-15T15:13:25.989Z,96955.02
2023-04-15T15:15:54.096Z,96966.28
2023-04-15T15:18:22.353Z,96983.28
2023-04-15T15:20:50.446Z,97009.80
2023-04-15T15:23:18.910Z,97033.12
2023-04-15T15:25:47.572Z,97056.92
2023-04-15T15:28:18.369Z,97068.69
2023-04-15T15:30:46.360Z,97077.34
2023-04-15T15:33:16.570Z,97083.91
2023-04-15T15:35:44.817Z,97085.55
2023-04-15T15:38:13.216Z,97083.95
2023-04-15T15:40:41.199Z,97074.05
2023-04-15T15:43:09.325Z,97062.48
2023-04-15T15:45:38.288Z,97050.84
2023-04-15T15:48:07.206Z,97048.69
2023-04-15T15:50:35.447Z,97031.17
2023-04-15T15:53:03.601Z,97023.92
2023-04-15T15:55:31.538Z,97011.69
2023-04-15T15:57:59.600Z,96997.19
2023-04-15T16:00:27.700Z,96989.34
2023-04-15T16:03:06.606Z,96983.38
2023-04-15T16:05:36.156Z,96982.42
2023-04-15T16:08:04.310Z,96976.90
2023-04-15T16:10:33.486Z,96973.59
2023-04-15T16:13:02.625Z,96979.05
2023-04-15T16:15:30.723Z,96976.16
2023-04-15T16:18:01.445Z,96968.67
2023-04-15T16:20:29.926Z,96967.02
2023-04-15T16:22:59.307Z,96964.96
2023-04-15T16:25:27.616Z,96961.83
2023-04-15T16:28:03.549Z,96964.76
2023-04-15T16:30:38.170Z,96969.64
2023-04-15T16:33:06.951Z,96971.09
2023-04-15T16:35:35.384Z,96968.88
2023-04-15T16:38:03.662Z,96977.17
2023-04-15T16:40:33.014Z,96979.30
2023-04-15T16:43:03.009Z,96978.45
2023-04-15T16:45:31.090Z,96975.90
2023-04-15T16:47:59.337Z,96980.35
2023-04-15T16:50:27.738Z,96982.09
2023-04-15T16:52:55.961Z,96979.45
2023-04-15T16:55:24.034Z,96983.49
2023-04-15T16:58:00.698Z,96991.16
2023-04-15T17:00:32.792Z,96994.98
2023-04-15T17:03:01.273Z,96999.23
2023-04-15T17:05:31.236Z,97001.66
2023-04-15T17:07:59.385Z,97008.73
2023-04-15T17:10:28.241Z,97011.08
2023-04-15T17:12:57.574Z,97015.86
2023-04-15T17:15:28.514Z,97024.48
2023-04-15T17:17:56.540Z,97033.34
2023-04-15T17:20:24.802Z,97037.64
2023-04-15T17:22:52.854Z,97042.72
2023-04-15T17:25:21.346Z,97045.68
2023-04-15T17:27:49.387Z,97052.16
2023-04-15T17:30:17.381Z,97060.92
2023-04-15T17:32:45.394Z,97063.72
2023-04-15T17:35:13.719Z,97070.71
2023-04-15T17:37:41.673Z,97071.48
2023-04-15T17:40:10.399Z,97071.96
2023-04-15T17:42:38.548Z,97078.13
2023-04-15T17:45:07.117Z,97086.85
2023-04-15T17:47:35.210Z,97097.30
2023-04-15T17:50:03.752Z,97106.34
2023-04-15T17:52:32.058Z,97110.55
2023-04-15T17:55:00.215Z,97116.27
2023-04-15T17:57:28.749Z,97119.98
2023-04-15T17:59:56.910Z,97122.90
2023-04-15T18:02:25.031Z,97130.14
2023-04-15T18:04:53.265Z,97138.40
2023-04-15T18:07:21.507Z,97143.82
2023-04-15T18:09:50.760Z,97152.55
2023-04-15T18:12:18.900Z,97156.77
2023-04-15T18:14:47.121Z,97162.67
2023-04-15T18:17:15.401Z,97165.71
2023-04-15T18:19:43.631Z,97166.89
2023-04-15T18:22:12.392Z,97172.70
2023-04-15T18:24:40.435Z,97176.95
2023-04-15T18:27:08.552Z,97179.57
2023-04-15T18:29:36.649Z,97184.16
2023-04-15T18:32:05.030Z,97194.41
2023-04-15T18:34:36.086Z,97202.72
2023-04-15T18:37:05.591Z,97212.20
2023-04-15T18:39:34.587Z,97212.89
2023-04-15T18:42:02.658Z,97211.61
2023-04-15T18:44:30.939Z,97210.20
2023-04-15T18:46:58.936Z,97214.38
2023-04-15T18:49:27.512Z,97217.52
2023-04-15T18:51:55.620Z,97221.27
2023-04-15T18:54:23.747Z,97222.59
2023-04-15T18:56:51.909Z,97228.14
2023-04-15T18:59:30.054Z,97229.05
2023-04-15T19:02:00.061Z,97228.56
2023-04-15T19:04:31.032Z,97230.98
2023-04-15T19:06:59.342Z,97232.91
2023-04-15T19:09:29.181Z,97230.66
2023-04-15T19:11:57.694Z,97227.92
2023-04-15T19:14:26.009Z,97224.56
2023-04-15T19:16:54.142Z,97223.61
2023-04-15T19:19:22.456Z,97226.44
2023-04-15T19:21:52.414Z,97231.34
2023-04-15T19:24:20.826Z,97228.73
2023-04-15T19:26:51.072Z,97230.71
2023-04-15T19:29:20.484Z,97232.80
2023-04-15T19:31:48.695Z,97236.48
2023-04-15T19:34:17.092Z,97240.00
2023-04-15T19:36:45.552Z,97240.26
2023-04-15T19:39:14.641Z,97241.61
2023-04-15T19:41:44.489Z,97243.30
2023-04-15T19:44:13.182Z,97243.75
2023-04-15T19:46:43.658Z,97245.71
2023-04-15T19:49:11.893Z,97249.29
2023-04-15T19:51:40.022Z,97248.00
2023-04-15T19:54:08.374Z,97249.47
2023-04-15T19:56:37.540Z,97251.50
2023-04-15T19:59:06.077Z,97253.67
2023-04-15T20:01:34.309Z,97253.81
2023-04-15T20:04:04.067Z,97252.86
2023-04-15T20:06:32.757Z,97253.92
2023-04-15T20:09:01.420Z,97251.36
2023-04-15T20:12:45.606Z,97245.66
2023-04-15T20:14:17.858Z,97248.98
2023-04-15T20:16:47.084Z,97248.67
2023-04-15T20:19:15.403Z,97252.80
2023-04-15T20:21:43.442Z,97256.39
2023-04-15T20:24:11.476Z,97259.58
2023-04-15T20:26:39.407Z,97261.83
2023-04-15T20:29:07.871Z,97258.70
2023-04-15T20:31:36.434Z,97259.29
2023-04-15T20:34:04.552Z,97259.06
2023-04-15T20:36:32.567Z,97259.15
2023-04-15T20:39:01.123Z,97267.55
2023-04-15T20:41:29.208Z,97273.02
2023-04-15T20:43:57.231Z,97275.96
2023-04-15T20:46:27.312Z,97277.02
2023-04-15T20:48:56.157Z,97283.00
2023-04-15T20:51:24.330Z,97279.19
2023-04-15T20:53:52.338Z,97284.31
2023-04-15T20:56:20.445Z,97288.42
2023-04-15T20:58:48.650Z,97290.59
2023-04-15T21:01:16.836Z,97295.02
2023-04-15T21:03:45.169Z,97295.50
2023-04-15T21:06:13.299Z,97294.77
2023-04-15T21:08:41.548Z,97302.54
2023-04-15T21:11:10.303Z,97305.62
2023-04-15T21:13:38.451Z,97308.38
2023-04-15T21:16:06.507Z,97309.83
2023-04-15T21:18:35.377Z,97309.44
2023-04-15T21:21:03.839Z,97312.73
2023-04-15T21:23:32.014Z,97310.94
2023-04-15T21:26:00.054Z,97312.72
2023-04-15T21:28:28.432Z,97309.59
2023-04-15T21:30:59.522Z,97309.41
2023-04-15T21:33:27.543Z,97314.52
2023-04-15T21:35:55.935Z,97314.52
2023-04-15T21:38:24.358Z,97311.70
2023-04-15T21:40:52.407Z,97318.10
2023-04-15T21:43:23.104Z,97322.69
2023-04-15T21:46:21.794Z,97328.13
2023-04-15T21:48:40.446Z,97327.06
2023-04-15T21:51:08.410Z,97329.17
2023-04-15T21:53:36.375Z,97333.69
2023-04-15T21:56:04.642Z,97330.34
2023-04-15T21:58:32.606Z,97329.30
2023-04-15T22:01:00.643Z,97328.23
2023-04-15T22:03:33.479Z,97326.34
2023-04-15T22:06:05.191Z,97322.80
2023-04-15T22:08:38.757Z,97327.92
2023-04-15T22:11:21.643Z,97323.20
2023-04-15T22:13:49.648Z,97323.46
2023-04-15T22:16:17.745Z,97322.89
2023-04-15T22:18:45.830Z,97324.80
2023-04-15T22:21:14.075Z,97328.98
2023-04-15T22:23:46.889Z,97340.90
2023-04-15T22:26:15.021Z,97340.91
2023-04-15T22:28:43.035Z,97342.55
2023-04-15T22:31:11.473Z,97347.00
2023-04-15T22:33:39.524Z,97352.95
2023-04-15T22:36:07.497Z,97352.66
2023-04-15T22:38:35.507Z,97360.97
2023-04-15T22:41:03.510Z,97362.95
2023-04-15T22:43:31.842Z,97362.79
2023-04-15T22:46:00.995Z,97366.12
2023-04-15T22:48:28.970Z,97363.81
2023-04-15T22:50:57.272Z,97368.64
2023-04-15T22:53:25.583Z,97369.61
2023-04-15T22:55:54.064Z,97368.45
2023-04-15T22:58:22.132Z,97370.80
2023-04-15T23:00:50.530Z,97373.96
2023-04-15T23:03:18.646Z,97369.61
2023-04-15T23:05:47.107Z,97375.20
2023-04-15T23:08:15.140Z,97375.02
2023-04-15T23:10:44.701Z,97376.24
2023-04-15T23:13:12.744Z,97377.95
2023-04-15T23:15:40.868Z,97382.02
2023-04-15T23:18:09.011Z,97382.61
2023-04-15T23:20:37.045Z,97382.33
2023-04-15T23:23:05.606Z,97376.98
2023-04-15T23:25:33.682Z,97381.77
2023-04-15T23:28:02.109Z,97381.78
2023-04-15T23:30:30.506Z,97380.17
2023-04-15T23:32:58.484Z,97383.58
2023-04-15T23:35:27.337Z,97384.20
2023-04-15T23:37:55.371Z,97384.90
2023-04-15T23:40:23.313Z,97382.89
2023-04-15T23:42:51.880Z,97386.63
2023-04-15T23:45:19.832Z,97386.35
2023-04-15T23:47:48.025Z,97385.74
2023-04-15T23:50:16.173Z,97385.42
2023-04-15T23:52:44.356Z,97387.93
2023-04-15T23:55:12.324Z,97385.92
2023-04-15T23:57:41.073Z,97386.38
